createdAt,value
2023-01-15T00:00:07.178Z,10.09
2023-01-15T00:04:11.954Z,10.11
2023-01-15T00:08:13.966Z,10.12
2023-01-15T00:12:15.988Z,10.13
2023-01-15T00:16:20.607Z,10.14
2023-01-15T00:20:22.794Z,10.16
2023-01-15T00:24:43.603Z,10.17
2023-01-15T00:28:48.404Z,10.15
2023-01-15T00:32:51.612Z,10.16
2023-01-15T00:36:54.043Z,10.14
2023-01-15T00:40:56.045Z,10.12
2023-01-15T00:44:58.109Z,10.14
2023-01-15T00:49:00.303Z,10.10
2023-01-15T00:53:02.992Z,10.06
2023-01-15T00:57:05.025Z,10.03
2023-01-15T01:01:07.410Z,9.89
2023-01-15T01:05:09.591Z,9.80
2023-01-15T01:09:14.172Z,9.70
2023-01-15T01:13:16.213Z,9.66
2023-01-15T01:17:18.842Z,9.62
2023-01-15T01:21:21.560Z,9.59
2023-01-15T01:25:23.613Z,9.59
2023-01-15T01:29:25.686Z,9.63
2023-01-15T01:33:27.745Z,9.75
2023-01-15T01:37:29.832Z,9.69
2023-01-15T01:41:32.272Z,9.45
2023-01-15T01:45:34.399Z,9.06
2023-01-15T01:49:39.369Z,8.67
2023-01-15T01:53:41.568Z,8.38
2023-01-15T01:57:44.728Z,8.29
2023-01-15T02:01:49.312Z,8.13
2023-01-15T02:05:56.213Z,8.01
2023-01-15T02:09:58.211Z,7.96
2023-01-15T02:14:29.585Z,7.93
2023-01-15T02:18:42.965Z,7.82
2023-01-15T02:23:15.331Z,7.64
2023-01-15T02:27:23.919Z,7.55
2023-01-15T02:31:40.895Z,7.50
2023-01-15T02:36:08.345Z,7.49
2023-01-15T02:40:13.356Z,7.30
2023-01-15T02:44:19.723Z,7.26
2023-01-15T02:48:28.088Z,7.24
2023-01-15T02:52:35.795Z,7.20
2023-01-15T02:56:42.731Z,7.00
2023-01-15T03:00:49.327Z,6.86
2023-01-15T03:05:13.366Z,6.71
2023-01-15T03:09:16.353Z,6.60
2023-01-15T03:13:31.504Z,6.47
2023-01-15T03:17:48.309Z,6.30
2023-01-15T03:21:54.376Z,6.11
2023-01-15T03:25:56.501Z,6.06
2023-01-15T03:30:04.360Z,6.28
2023-01-15T03:34:07.284Z,6.16
2023-01-15T03:38:10.973Z,6.07
2023-01-15T03:43:28.114Z,6.02
2023-01-15T03:48:26.535Z,5.97
2023-01-15T03:52:37.815Z,6.02
2023-01-15T03:56:55.691Z,6.06
2023-01-15T04:01:03.095Z,6.09
2023-01-15T04:05:06.990Z,6.09
2023-01-15T04:09:13.236Z,6.00
2023-01-15T04:13:15.503Z,5.89
2023-01-15T04:17:18.631Z,5.91
2023-01-15T04:21:21.433Z,5.95
2023-01-15T04:25:23.478Z,6.03
2023-01-15T04:29:26.377Z,5.93
2023-01-15T04:33:28.441Z,5.84
2023-01-15T04:37:30.426Z,5.88
2023-01-15T04:42:01.617Z,5.91
2023-01-15T04:46:03.825Z,5.82
2023-01-15T04:50:06.643Z,5.76
2023-01-15T04:54:11.251Z,5.82
2023-01-15T04:58:13.347Z,5.87
2023-01-15T05:02:15.780Z,5.89
2023-01-15T05:06:18.516Z,5.90
2023-01-15T05:10:20.554Z,5.92
2023-01-15T05:14:22.669Z,5.91
2023-01-15T05:18:24.663Z,5.89
2023-01-15T05:22:26.690Z,5.87
2023-01-15T05:26:31.532Z,5.85
2023-01-15T05:30:33.535Z,5.82
2023-01-15T05:34:35.598Z,5.74
2023-01-15T05:38:38.128Z,5.69
2023-01-15T05:42:40.235Z,5.66
2023-01-15T05:46:43.758Z,5.67
2023-01-15T05:50:45.833Z,5.71
2023-01-15T05:54:49.466Z,5.75
2023-01-15T05:58:52.315Z,5.79
2023-01-15T06:02:54.424Z,5.89
2023-01-15T06:06:57.400Z,5.92
2023-01-15T06:10:59.470Z,5.90
2023-01-15T06:15:01.501Z,5.90
2023-01-15T06:19:05.904Z,5.91
2023-01-15T06:23:08.559Z,5.89
2023-01-15T06:27:10.579Z,5.90
2023-01-15T06:31:15.750Z,5.82
2023-01-15T06:35:17.810Z,5.76
2023-01-15T06:39:19.847Z,5.72
2023-01-15T06:43:40.666Z,5.67
2023-01-15T06:47:42.748Z,5.66
2023-01-15T06:51:44.749Z,5.64
2023-01-15T06:55:47.073Z,5.68
2023-01-15T06:59:50.142Z,5.72
2023-01-15T07:03:52.180Z,5.74
2023-01-15T07:07:54.252Z,5.79
2023-01-15T07:11:56.312Z,5.79
2023-01-15T07:16:03.284Z,5.81
2023-01-15T07:20:06.100Z,5.78
2023-01-15T07:24:09.045Z,5.85
2023-01-15T07:28:11.069Z,5.84
2023-01-15T07:32:13.569Z,5.86
2023-01-15T07:36:15.624Z,5.85
2023-01-15T07:40:18.106Z,5.83
2023-01-15T07:44:39.018Z,5.81
2023-01-15T07:48:59.446Z,5.75
2023-01-15T07:53:01.442Z,5.84
2023-01-15T07:57:04.007Z,5.80
2023-01-15T08:01:06.478Z,5.78
2023-01-15T08:05:09.442Z,5.83
2023-01-15T08:09:11.681Z,5.86
2023-01-15T08:13:32.426Z,5.90
2023-01-15T08:17:36.052Z,5.92
2023-01-15T08:21:38.153Z,5.95
2023-01-15T08:25:40.241Z,5.92
2023-01-15T08:29:42.417Z,5.85
2023-01-15T08:33:44.426Z,5.78
2023-01-15T08:37:46.429Z,5.85
2023-01-15T08:41:48.413Z,5.85
2023-01-15T08:45:50.472Z,5.86
2023-01-15T08:49:52.504Z,5.81
2023-01-15T08:53:54.480Z,5.85
2023-01-15T08:57:56.750Z,5.87
2023-01-15T09:01:58.874Z,5.89
2023-01-15T09:06:01.696Z,6.10
2023-01-15T09:10:04.409Z,7.12
2023-01-15T09:14:07.899Z,7.45
2023-01-15T09:18:30.559Z,7.01
2023-01-15T09:22:32.583Z,6.67
2023-01-15T09:26:36.981Z,6.41
2023-01-15T09:30:39.095Z,6.27
2023-01-15T09:34:41.209Z,6.20
2023-01-15T09:38:43.273Z,6.20
2023-01-15T09:43:28.576Z,6.28
2023-01-15T09:47:38.096Z,6.23
2023-01-15T09:51:52.982Z,6.15
2023-01-15T09:55:55.347Z,6.17
2023-01-15T10:00:02.388Z,6.16
2023-01-15T10:04:29.395Z,6.15
2023-01-15T10:08:36.567Z,6.15
2023-01-15T10:12:40.180Z,6.13
2023-01-15T10:16:42.267Z,6.16
2023-01-15T10:20:49.782Z,6.12
2023-01-15T10:25:05.957Z,6.15
2023-01-15T10:29:21.738Z,6.16
2023-01-15T10:33:41.157Z,6.16
2023-01-15T10:38:09.631Z,6.14
2023-01-15T10:42:17.746Z,6.15
2023-01-15T10:46:27.123Z,6.17
2023-01-15T10:50:29.246Z,6.23
2023-01-15T10:54:34.228Z,6.18
2023-01-15T10:58:58.480Z,6.17
2023-01-15T11:03:07.648Z,6.27
2023-01-15T11:07:11.817Z,6.34
2023-01-15T11:11:20.964Z,6.44
2023-01-15T11:15:43.691Z,6.52
2023-01-15T11:19:45.793Z,6.56
2023-01-15T11:23:49.171Z,6.59
2023-01-15T11:27:51.375Z,6.63
2023-01-15T11:31:53.406Z,6.62
2023-01-15T11:35:58.647Z,6.66
2023-01-15T11:40:09.717Z,6.81
2023-01-15T11:44:31.308Z,6.82
2023-01-15T11:49:06.469Z,6.81
2023-01-15T11:53:23.917Z,6.86
2023-01-15T11:57:32.299Z,6.96
2023-01-15T12:01:41.066Z,7.01
2023-01-15T12:05:49.872Z,7.00
2023-01-15T12:10:14.343Z,7.06
2023-01-15T12:14:52.787Z,7.13
2023-01-15T12:19:24.983Z,7.03
2023-01-15T12:23:54.361Z,6.94
2023-01-15T12:28:04.700Z,6.91
2023-01-15T12:32:24.476Z,6.88
2023-01-15T12:36:36.908Z,6.89
2023-01-15T12:40:54.011Z,6.84
2023-01-15T12:45:01.664Z,6.88
2023-01-15T12:49:19.783Z,6.93
2023-01-15T12:53:25.098Z,7.05
2023-01-15T12:57:36.496Z,7.20
2023-01-15T13:02:15.134Z,7.27
2023-01-15T13:06:18.910Z,7.26
2023-01-15T13:10:27.265Z,7.17
2023-01-15T13:14:30.299Z,7.13
2023-01-15T13:18:52.190Z,7.01
2023-01-15T13:23:25.622Z,6.95
2023-01-15T13:27:49.021Z,6.93
2023-01-15T13:31:58.719Z,6.85
2023-01-15T13:36:11.884Z,6.83
2023-01-15T13:40:26.330Z,6.85
2023-01-15T13:44:36.653Z,6.87
2023-01-15T13:48:42.567Z,6.93
2023-01-15T13:52:46.163Z,7.00
2023-01-15T13:56:48.118Z,7.01
2023-01-15T14:01:02.070Z,7.04
2023-01-15T14:05:22.996Z,7.19
2023-01-15T14:09:24.955Z,7.21
2023-01-15T14:13:46.844Z,7.22
2023-01-15T14:18:02.833Z,7.24
2023-01-15T14:22:30.867Z,7.24
2023-01-15T14:27:13.010Z,7.20
2023-01-15T14:31:34.770Z,7.21
2023-01-15T14:35:44.645Z,7.25
2023-01-15T14:39:48.834Z,7.17
2023-01-15T14:43:50.888Z,7.10
2023-01-15T14:47:55.628Z,7.04
2023-01-15T14:51:59.143Z,7.06
2023-01-15T14:56:19.757Z,7.05
2023-01-15T15:00:25.033Z,7.01
2023-01-15T15:04:53.797Z,6.92
2023-01-15T15:09:01.906Z,6.94
2023-01-15T15:13:19.600Z,6.94
2023-01-15T15:17:39.841Z,6.91
2023-01-15T15:21:45.234Z,6.90
2023-01-15T15:25:57.452Z,6.89
2023-01-15T15:30:05.578Z,6.88
2023-01-15T15:34:16.414Z,6.84
2023-01-15T15:38:21.424Z,6.82
2023-01-15T15:42:49.184Z,6.79
2023-01-15T15:47:09.798Z,6.78
2023-01-15T15:51:42.465Z,6.77
2023-01-15T15:55:45.809Z,6.74
2023-01-15T15:59:52.569Z,6.66
2023-01-15T16:03:55.057Z,6.58
2023-01-15T16:08:27.590Z,6.40
2023-01-15T16:12:33.977Z,6.21
2023-01-15T16:16:36.839Z,5.97
2023-01-15T16:20:39.327Z,5.86
2023-01-15T16:24:41.337Z,5.86
2023-01-15T16:28:50.539Z,5.84
2023-01-15T16:32:55.904Z,5.80
2023-01-15T16:37:00.326Z,5.76
2023-01-15T16:41:03.185Z,5.78
2023-01-15T16:45:19.401Z,5.82
2023-01-15T16:49:27.263Z,5.82
2023-01-15T16:53:40.661Z,5.86
2023-01-15T16:57:42.696Z,5.94
2023-01-15T17:01:47.238Z,5.98
2023-01-15T17:06:04.721Z,6.02
2023-01-15T17:10:20.289Z,6.06
2023-01-15T17:14:25.033Z,6.09
2023-01-15T17:18:28.797Z,6.12
2023-01-15T17:22:33.531Z,6.06
2023-01-15T17:26:35.700Z,5.94
2023-01-15T17:30:37.710Z,5.81
2023-01-15T17:34:39.783Z,5.77
2023-01-15T17:38:41.791Z,5.73
2023-01-15T17:42:44.434Z,5.72
2023-01-15T17:46:46.643Z,5.68
2023-01-15T17:50:48.973Z,5.66
2023-01-15T17:55:09.701Z,5.67
2023-01-15T17:59:30.149Z,5.65
2023-01-15T18:03:51.421Z,5.59
2023-01-15T18:07:56.587Z,5.47
2023-01-15T18:11:58.680Z,5.43
2023-01-15T18:16:00.791Z,5.36
2023-01-15T18:20:02.938Z,5.29
2023-01-15T18:24:05.802Z,5.26
2023-01-15T18:28:07.810Z,5.25
2023-01-15T18:32:10.155Z,5.32
2023-01-15T18:36:14.441Z,5.36
2023-01-15T18:40:16.566Z,5.33
2023-01-15T18:44:40.510Z,5.26
2023-01-15T18:48:42.507Z,5.14
2023-01-15T18:52:50.611Z,5.06
2023-01-15T18:56:52.650Z,5.09
2023-01-15T19:00:54.692Z,5.19
2023-01-15T19:04:56.759Z,5.25
2023-01-15T19:08:58.841Z,5.31
2023-01-15T19:13:03.004Z,5.38
2023-01-15T19:17:23.939Z,5.40
2023-01-15T19:21:25.925Z,5.42
2023-01-15T19:25:37.419Z,5.45
2023-01-15T19:29:39.434Z,5.47
2023-01-15T19:33:41.485Z,5.47
2023-01-15T19:37:43.709Z,5.52
2023-01-15T19:42:04.141Z,5.40
2023-01-15T19:46:27.113Z,5.40
2023-01-15T19:50:42.836Z,5.37
2023-01-15T19:54:56.835Z,5.23
2023-01-15T19:58:58.926Z,5.12
2023-01-15T20:03:02.230Z,5.05
2023-01-15T20:07:04.308Z,4.98
2023-01-15T20:11:09.345Z,4.99
2023-01-15T20:15:11.674Z,4.99
2023-01-15T20:19:13.661Z,4.95
2023-01-15T20:23:15.738Z,4.95
2023-01-15T20:27:18.170Z,5.00
2023-01-15T20:31:20.292Z,4.97
2023-01-15T20:35:25.546Z,4.87
2023-01-15T20:39:27.571Z,4.89
2023-01-15T20:43:48.299Z,4.88
2023-01-15T20:48:09.263Z,4.77
2023-01-15T20:52:11.264Z,4.69
2023-01-15T20:56:15.533Z,4.70
2023-01-15T21:00:20.704Z,4.75
2023-01-15T21:04:22.786Z,4.72
2023-01-15T21:08:25.213Z,4.80
2023-01-15T21:12:27.298Z,4.97
2023-01-15T21:16:29.338Z,4.96
2023-01-15T21:20:31.472Z,4.93
2023-01-15T21:24:33.862Z,4.87
2023-01-15T21:28:35.847Z,5.09
2023-01-15T21:32:37.906Z,5.28
2023-01-15T21:36:39.892Z,5.23
2023-01-15T21:40:41.864Z,5.15
2023-01-15T21:44:44.328Z,5.14
2023-01-15T21:48:46.362Z,5.24
2023-01-15T21:52:48.464Z,5.29
2023-01-15T21:56:50.471Z,5.31
2023-01-15T22:00:52.457Z,5.32
2023-01-15T22:04:54.467Z,5.30
2023-01-15T22:08:56.662Z,5.30
2023-01-15T22:12:58.700Z,5.25
2023-01-15T22:17:02.973Z,5.24
2023-01-15T22:21:07.044Z,5.19
2023-01-15T22:25:11.663Z,5.10
2023-01-15T22:29:13.666Z,5.00
2023-01-15T22:33:16.279Z,4.95
2023-01-15T22:37:18.262Z,4.91
2023-01-15T22:41:40.197Z,4.87
2023-01-15T22:45:42.261Z,4.75
2023-01-15T22:49:44.356Z,4.90
2023-01-15T22:53:46.345Z,5.13
2023-01-15T22:57:49.074Z,5.14
2023-01-15T23:01:51.266Z,5.12
2023-01-15T23:05:53.362Z,5.11
2023-01-15T23:09:55.368Z,5.13
2023-01-15T23:13:57.714Z,5.09
2023-01-15T23:17:59.779Z,5.02
2023-01-15T23:22:01.762Z,4.96
2023-01-15T23:26:06.323Z,4.87
2023-01-15T23:30:09.211Z,4.82
2023-01-15T23:34:12.393Z,4.78
2023-01-15T23:38:14.562Z,4.80
2023-01-15T23:42:35.235Z,4.84
2023-01-15T23:46:37.310Z,4.86
2023-01-15T23:50:39.344Z,5.10
2023-01-15T23:54:41.445Z,5.27
2023-01-15T23:58:45.101Z,5.14
